createdAt,value
2023-02-13T00:00:23.146Z,27.60
2023-02-13T00:02:49.903Z,27.30
2023-02-13T00:05:16.413Z,26.05
2023-02-13T00:07:42.870Z,23.95
2023-02-13T00:10:09.844Z,27.08
2023-02-13T00:12:36.439Z,24.40
2023-02-13T00:15:03.446Z,24.50
2023-02-13T00:17:30.132Z,27.90
2023-02-13T00:19:56.607Z,28.77
2023-02-13T00:22:24.294Z,29.45
2023-02-13T00:24:51.057Z,23.10
2023-02-13T00:27:17.590Z,24.55
2023-02-13T00:29:44.123Z,24.52
2023-02-13T00:32:10.640Z,25.33
2023-02-13T00:34:37.266Z,25.42
2023-02-13T00:37:03.878Z,26.75
2023-02-13T00:39:30.387Z,26.20
2023-02-13T00:41:56.876Z,25.05
2023-02-13T00:44:23.338Z,25.25
2023-02-13T00:46:49.918Z,26.17
2023-02-13T00:49:17.001Z,22.40
2023-02-13T00:51:43.470Z,26.20
2023-02-13T00:54:09.977Z,23.98
2023-02-13T00:56:36.923Z,22.27
2023-02-13T00:59:03.543Z,26.40
2023-02-13T01:01:30.119Z,19.80
2023-02-13T01:03:56.674Z,25.67
2023-02-13T01:06:23.310Z,24.08
2023-02-13T01:08:49.917Z,24.05
2023-02-13T01:11:16.521Z,28.60
2023-02-13T01:13:43.936Z,22.48
2023-02-13T01:16:10.998Z,25.23
2023-02-13T01:18:38.750Z,29.90
2023-02-13T01:21:07.927Z,22.75
2023-02-13T01:23:37.201Z,20.17
2023-02-13T01:26:10.832Z,21.20
2023-02-13T01:28:37.395Z,25.80
2023-02-13T01:31:04.644Z,22.05
2023-02-13T01:33:31.270Z,23.83
2023-02-13T01:35:58.113Z,24.02
2023-02-13T01:38:24.621Z,24.08
2023-02-13T01:40:53.098Z,20.60
2023-02-13T01:43:23.575Z,22.05
2023-02-13T01:45:55.973Z,27.67
2023-02-13T01:48:26.312Z,21.30
2023-02-13T01:51:00.839Z,25.73
2023-02-13T01:53:36.746Z,22.75
2023-02-13T01:56:11.611Z,22.27
2023-02-13T01:58:41.956Z,22.13
2023-02-13T02:01:09.929Z,22.10
2023-02-13T02:03:49.300Z,21.40
2023-02-13T02:06:28.250Z,22.10
2023-02-13T02:09:02.309Z,21.92
2023-02-13T02:11:36.229Z,23.15
2023-02-13T02:14:04.519Z,24.15
2023-02-13T02:16:33.385Z,23.48
2023-02-13T02:19:04.096Z,24.67
2023-02-13T02:22:00.341Z,21.38
2023-02-13T02:24:45.600Z,21.80
2023-02-13T02:27:37.206Z,23.35
2023-02-13T02:30:28.925Z,22.42
2023-02-13T02:33:15.650Z,18.50
2023-02-13T02:36:07.414Z,22.02
2023-02-13T02:38:55.440Z,25.02
2023-02-13T02:41:43.440Z,23.95
2023-02-13T02:44:36.898Z,25.90
2023-02-13T02:47:51.599Z,24.65
2023-02-13T02:50:34.378Z,22.33
2023-02-13T02:53:22.144Z,20.23
2023-02-13T02:56:02.822Z,21.40
2023-02-13T02:59:07.018Z,23.38
2023-02-13T03:01:54.933Z,24.95
2023-02-13T03:04:51.989Z,22.88
2023-02-13T03:07:20.057Z,23.42
2023-02-13T03:10:16.628Z,24.60
2023-02-13T03:13:09.566Z,23.60
2023-02-13T03:16:00.269Z,25.08
2023-02-13T03:18:46.665Z,24.58
2023-02-13T03:21:38.133Z,23.27
2023-02-13T03:24:15.150Z,24.67
2023-02-13T03:27:07.773Z,26.17
2023-02-13T03:30:11.629Z,23.92
2023-02-13T03:32:57.967Z,21.95
2023-02-13T03:35:56.909Z,24.30
2023-02-13T03:38:33.584Z,26.05
2023-02-13T03:41:18.785Z,22.83
2023-02-13T03:44:07.040Z,24.23
2023-02-13T03:46:38.943Z,25.50
2023-02-13T03:49:27.171Z,24.30
2023-02-13T03:51:57.948Z,26.17
2023-02-13T03:54:53.857Z,27.33
2023-02-13T03:57:42.898Z,24.88
2023-02-13T04:00:12.852Z,19.85
2023-02-13T04:03:03.618Z,23.33
2023-02-13T04:05:32.854Z,21.00
2023-02-13T04:07:59.458Z,27.42
2023-02-13T04:10:31.555Z,24.10
2023-02-13T04:13:05.563Z,24.73
2023-02-13T04:15:43.562Z,24.30
2023-02-13T04:18:21.326Z,23.67
2023-02-13T04:20:48.146Z,27.42
2023-02-13T04:23:15.363Z,24.33
2023-02-13T04:25:45.974Z,24.95
2023-02-13T04:28:12.660Z,24.75
2023-02-13T04:30:39.412Z,23.85
2023-02-13T04:33:05.976Z,26.45
2023-02-13T04:35:32.500Z,25.75
2023-02-13T04:37:59.077Z,25.27
2023-02-13T04:40:25.680Z,26.25
2023-02-13T04:42:52.166Z,27.30
2023-02-13T04:45:18.890Z,25.55
2023-02-13T04:47:53.272Z,24.08
2023-02-13T04:50:20.154Z,23.75
2023-02-13T04:52:47.077Z,23.10
2023-02-13T04:55:14.125Z,27.45
2023-02-13T04:57:40.589Z,22.90
2023-02-13T05:00:08.427Z,27.25
2023-02-13T05:02:34.930Z,29.23
2023-02-13T05:05:01.404Z,25.70
2023-02-13T05:07:27.973Z,32.15
2023-02-13T05:09:54.482Z,25.80
2023-02-13T05:12:20.973Z,29.75
2023-02-13T05:14:47.538Z,28.48
2023-02-13T05:17:14.065Z,24.88
2023-02-13T05:19:40.662Z,21.02
2023-02-13T05:22:27.349Z,30.40
2023-02-13T05:24:53.865Z,24.05
2023-02-13T05:27:20.530Z,27.73
2023-02-13T05:29:47.270Z,26.65
2023-02-13T05:32:13.876Z,27.00
2023-02-13T05:34:40.531Z,27.65
2023-02-13T05:37:07.056Z,30.30
2023-02-13T05:39:33.576Z,27.35
2023-02-13T05:42:00.141Z,26.60
2023-02-13T05:44:26.769Z,27.55
2023-02-13T05:46:53.391Z,26.02
2023-02-13T05:49:19.818Z,24.70
2023-02-13T05:51:46.709Z,25.80
2023-02-13T05:54:13.412Z,25.42
2023-02-13T05:56:39.881Z,27.02
2023-02-13T05:59:06.706Z,27.10
2023-02-13T06:01:33.303Z,25.35
2023-02-13T06:04:02.643Z,29.77
2023-02-13T06:06:30.229Z,26.38
2023-02-13T06:08:56.714Z,30.70
2023-02-13T06:11:23.190Z,29.33
2023-02-13T06:13:49.694Z,29.58
2023-02-13T06:16:16.300Z,27.45
2023-02-13T06:18:42.896Z,31.00
2023-02-13T06:21:09.431Z,25.20
2023-02-13T06:23:35.930Z,27.63
2023-02-13T06:26:05.170Z,28.42
2023-02-13T06:28:31.841Z,31.42
2023-02-13T06:31:02.065Z,28.27
2023-02-13T06:33:28.787Z,28.75
2023-02-13T06:35:55.307Z,27.92
2023-02-13T06:38:22.121Z,33.22
2023-02-13T06:40:49.667Z,29.83
2023-02-13T06:43:16.744Z,32.03
2023-02-13T06:45:43.270Z,26.52
2023-02-13T06:48:09.884Z,30.67
2023-02-13T06:50:36.421Z,23.90
2023-02-13T06:53:03.063Z,31.85
2023-02-13T06:55:29.604Z,30.75
2023-02-13T06:57:56.150Z,30.48
2023-02-13T07:00:22.893Z,27.33
2023-02-13T07:02:49.426Z,26.98
2023-02-13T07:05:16.050Z,26.92
2023-02-13T07:07:43.114Z,32.83
2023-02-13T07:10:12.860Z,29.20
2023-02-13T07:12:39.436Z,32.55
2023-02-13T07:15:06.584Z,36.33
2023-02-13T07:17:33.983Z,32.22
2023-02-13T07:20:00.650Z,36.47
2023-02-13T07:22:27.231Z,28.15
2023-02-13T07:24:53.745Z,29.40
2023-02-13T07:27:20.232Z,29.88
2023-02-13T07:29:46.699Z,33.85
2023-02-13T07:32:13.189Z,31.63
2023-02-13T07:34:44.475Z,36.97
2023-02-13T07:37:15.904Z,34.08
2023-02-13T07:39:42.443Z,34.67
2023-02-13T07:42:08.886Z,34.13
2023-02-13T07:44:36.677Z,34.42
2023-02-13T07:47:09.289Z,36.53
2023-02-13T07:49:36.944Z,32.65
2023-02-13T07:52:04.746Z,32.92
2023-02-13T07:54:31.958Z,32.92
2023-02-13T07:56:59.326Z,31.65
2023-02-13T07:59:25.862Z,28.33
2023-02-13T08:01:52.372Z,32.72
2023-02-13T08:04:18.961Z,35.13
2023-02-13T08:06:45.448Z,34.28
2023-02-13T08:09:40.752Z,39.30
2023-02-13T08:12:09.322Z,33.10
2023-02-13T08:14:35.872Z,34.88
2023-02-13T08:17:02.412Z,31.70
2023-02-13T08:19:29.329Z,40.10
2023-02-13T08:21:56.138Z,36.42
2023-02-13T08:24:23.060Z,33.50
2023-02-13T08:26:49.575Z,31.40
2023-02-13T08:29:16.163Z,40.47
2023-02-13T08:31:43.676Z,32.33
2023-02-13T08:34:10.674Z,36.20
2023-02-13T08:36:37.169Z,36.78
2023-02-13T08:39:03.776Z,34.08
2023-02-13T08:41:30.244Z,35.15
2023-02-13T08:43:56.803Z,34.78
2023-02-13T08:46:23.425Z,35.35
2023-02-13T08:48:50.190Z,31.50
2023-02-13T08:51:16.763Z,34.92
2023-02-13T08:53:43.308Z,37.10
2023-02-13T08:56:10.824Z,31.02
2023-02-13T08:58:37.346Z,31.15
2023-02-13T09:01:08.500Z,31.17
2023-02-13T09:03:35.926Z,28.25
2023-02-13T09:06:02.842Z,27.95
2023-02-13T09:08:29.834Z,28.75
2023-02-13T09:11:01.629Z,31.23
2023-02-13T09:16:00.221Z,31.17
2023-02-13T09:18:27.711Z,32.30
2023-02-13T09:21:01.782Z,24.58
2023-02-13T09:23:31.939Z,27.38
2023-02-13T09:26:00.477Z,26.90
2023-02-13T09:28:27.227Z,28.73
2023-02-13T09:30:53.908Z,27.85
2023-02-13T09:33:20.497Z,26.60
2023-02-13T09:35:46.965Z,31.05
2023-02-13T09:38:13.530Z,26.63
2023-02-13T09:40:54.872Z,28.92
2023-02-13T09:43:34.740Z,27.45
2023-02-13T09:46:11.496Z,25.40
2023-02-13T09:48:42.244Z,27.15
2023-02-13T09:51:14.941Z,25.52
2023-02-13T09:53:43.534Z,23.65
2023-02-13T09:56:16.864Z,26.33
2023-02-13T09:58:47.256Z,23.45
2023-02-13T10:01:21.545Z,23.25
2023-02-13T10:04:25.569Z,24.08
2023-02-13T10:07:22.527Z,24.75
2023-02-13T10:10:02.789Z,23.17
2023-02-13T10:12:54.689Z,24.13
2023-02-13T10:16:00.114Z,27.63
2023-02-13T10:18:36.169Z,23.92
2023-02-13T10:21:05.560Z,25.63
2023-02-13T10:23:54.698Z,26.55
2023-02-13T10:26:42.368Z,24.65
2023-02-13T10:29:42.757Z,20.83
2023-02-13T10:32:14.891Z,25.98
2023-02-13T10:34:45.350Z,27.35
2023-02-13T10:37:18.431Z,25.77
2023-02-13T10:39:48.452Z,30.02
2023-02-13T10:42:53.265Z,24.92
2023-02-13T10:45:54.462Z,25.33
2023-02-13T10:48:48.396Z,26.27
2023-02-13T10:51:21.169Z,28.08
2023-02-13T10:54:25.018Z,24.88
2023-02-13T10:57:10.961Z,25.55
2023-02-13T10:59:51.422Z,24.40
2023-02-13T11:02:25.869Z,28.08
2023-02-13T11:04:57.643Z,24.75
2023-02-13T11:09:55.810Z,26.42
2023-02-13T11:12:27.377Z,23.90
2023-02-13T11:15:02.725Z,24.15
2023-02-13T11:17:32.910Z,29.35
2023-02-13T11:20:02.533Z,28.67
2023-02-13T11:22:42.620Z,24.20
2023-02-13T11:25:21.713Z,23.90
2023-02-13T11:27:50.360Z,23.15
2023-02-13T11:30:23.079Z,22.63
2023-02-13T11:33:05.611Z,25.02
2023-02-13T11:35:37.182Z,26.55
2023-02-13T11:38:15.863Z,25.50
2023-02-13T11:41:03.866Z,22.85
2023-02-13T11:43:35.322Z,22.27
2023-02-13T11:46:07.679Z,27.95
2023-02-13T11:48:34.878Z,27.25
2023-02-13T11:51:02.073Z,23.15
2023-02-13T11:53:37.663Z,25.67
2023-02-13T11:56:13.739Z,25.20
2023-02-13T11:58:41.814Z,21.85
2023-02-13T12:01:15.981Z,23.70
2023-02-13T12:03:42.846Z,21.85
2023-02-13T12:06:15.634Z,21.42
2023-02-13T12:08:49.120Z,25.52
2023-02-13T12:11:49.490Z,24.77
2023-02-13T12:14:26.187Z,22.55
2023-02-13T12:17:06.993Z,24.40
2023-02-13T12:19:42.272Z,21.15
2023-02-13T12:22:33.956Z,21.80
2023-02-13T12:25:25.625Z,22.10
2023-02-13T12:28:06.885Z,21.67
2023-02-13T12:31:10.660Z,23.73
2023-02-13T12:33:54.510Z,25.83
2023-02-13T12:37:05.657Z,22.20
2023-02-13T12:39:35.247Z,23.92
2023-02-13T12:42:14.571Z,21.83
2023-02-13T12:45:18.114Z,24.48
2023-02-13T12:48:28.556Z,22.00
2023-02-13T12:51:22.295Z,22.95
2023-02-13T12:54:07.195Z,23.55
2023-02-13T12:56:51.700Z,20.70
2023-02-13T12:59:34.210Z,24.25
2023-02-13T13:02:00.763Z,22.02
2023-02-13T13:04:47.563Z,21.50
2023-02-13T13:07:38.974Z,25.55
2023-02-13T13:10:31.015Z,21.02
2023-02-13T13:15:47.774Z,18.77
2023-02-13T13:18:17.168Z,19.73
2023-02-13T13:21:08.938Z,21.13
2023-02-13T13:24:00.975Z,19.70
2023-02-13T13:29:15.163Z,20.98
2023-02-13T13:31:46.397Z,22.70
2023-02-13T13:34:20.672Z,20.55
2023-02-13T13:36:54.406Z,24.05
2023-02-13T13:39:42.049Z,21.83
2023-02-13T13:42:14.946Z,20.42
2023-02-13T13:45:04.758Z,19.40
2023-02-13T13:47:31.262Z,25.55
2023-02-13T13:49:59.894Z,19.70
2023-02-13T13:52:29.071Z,21.90
2023-02-13T13:54:57.829Z,25.58
2023-02-13T13:57:26.412Z,19.02
2023-02-13T13:59:59.469Z,19.83
2023-02-13T14:02:43.180Z,20.42
2023-02-13T14:05:33.251Z,19.02
2023-02-13T14:08:24.594Z,22.65
2023-02-13T14:10:53.972Z,24.58
2023-02-13T14:13:32.770Z,19.88
2023-02-13T14:15:59.702Z,18.25
2023-02-13T14:18:27.755Z,25.25
2023-02-13T14:21:03.355Z,23.13
2023-02-13T14:23:37.842Z,31.00
2023-02-13T14:26:19.702Z,20.30
2023-02-13T14:28:48.867Z,21.33
2023-02-13T14:31:23.390Z,20.15
2023-02-13T14:34:06.796Z,28.92
2023-02-13T14:36:36.481Z,21.30
2023-02-13T14:39:28.523Z,20.08
2023-02-13T14:44:29.858Z,20.17
2023-02-13T14:47:01.742Z,21.90
2023-02-13T14:49:35.877Z,19.20
2023-02-13T14:52:12.131Z,20.05
2023-02-13T14:54:45.543Z,22.40
2023-02-13T14:57:22.926Z,22.05
2023-02-13T15:00:11.647Z,19.30
2023-02-13T15:02:46.768Z,23.67
2023-02-13T15:05:16.285Z,21.48
2023-02-13T15:07:49.244Z,19.90
2023-02-13T15:10:42.430Z,17.63
2023-02-13T15:13:39.955Z,19.35
2023-02-13T15:16:11.697Z,22.48
2023-02-13T15:21:32.937Z,18.20
2023-02-13T15:24:00.106Z,18.25
2023-02-13T15:26:28.726Z,18.13
2023-02-13T15:29:25.809Z,18.75
2023-02-13T15:31:53.756Z,20.63
2023-02-13T15:34:26.961Z,21.35
2023-02-13T15:36:55.598Z,21.35
2023-02-13T15:39:29.619Z,21.70
2023-02-13T15:41:59.053Z,21.55
2023-02-13T15:44:32.785Z,20.45
2023-02-13T15:47:17.428Z,31.70
2023-02-13T15:49:47.620Z,24.63
2023-02-13T15:52:28.949Z,21.25
2023-02-13T15:54:56.512Z,21.48
2023-02-13T15:57:25.261Z,19.98
2023-02-13T15:59:52.506Z,20.00
2023-02-13T16:02:47.472Z,22.30
2023-02-13T16:05:17.163Z,20.90
2023-02-13T16:07:48.830Z,21.57
2023-02-13T16:10:33.528Z,21.98
2023-02-13T16:13:05.559Z,21.92
2023-02-13T16:15:34.614Z,22.13
2023-02-13T16:18:01.603Z,22.48
2023-02-13T16:20:29.971Z,23.60
2023-02-13T16:23:01.184Z,20.52
2023-02-13T16:25:31.077Z,22.73
2023-02-13T16:28:00.041Z,24.77
2023-02-13T16:30:37.042Z,25.00
2023-02-13T16:33:15.534Z,22.42
2023-02-13T16:35:50.975Z,22.80
2023-02-13T16:38:38.569Z,21.80
2023-02-13T16:41:05.984Z,19.60
2023-02-13T16:43:44.051Z,18.98
2023-02-13T16:46:18.918Z,24.25
2023-02-13T16:48:48.168Z,21.08
2023-02-13T16:51:22.230Z,20.27
2023-02-13T16:53:57.055Z,20.55
2023-02-13T16:56:23.731Z,18.88
2023-02-13T16:58:50.351Z,22.83
2023-02-13T17:01:18.228Z,20.92
2023-02-13T17:03:44.828Z,24.00
2023-02-13T17:06:11.604Z,20.15
2023-02-13T17:08:38.367Z,20.00
2023-02-13T17:11:07.767Z,23.98
2023-02-13T17:13:34.703Z,21.48
2023-02-13T17:16:01.295Z,27.80
2023-02-13T17:18:27.789Z,23.75
2023-02-13T17:20:54.839Z,24.13
2023-02-13T17:23:24.515Z,23.42
2023-02-13T17:25:53.583Z,27.42
2023-02-13T17:28:23.083Z,26.20
2023-02-13T17:30:52.308Z,25.17
2023-02-13T17:33:27.800Z,22.08
2023-02-13T17:35:54.894Z,23.75
2023-02-13T17:38:22.069Z,26.50
2023-02-13T17:40:49.201Z,24.33
2023-02-13T17:43:17.571Z,25.90
2023-02-13T17:45:45.554Z,23.05
2023-02-13T17:48:12.296Z,21.98
2023-02-13T17:50:39.270Z,27.38
2023-02-13T17:53:21.703Z,22.08
2023-02-13T17:55:48.210Z,24.77
2023-02-13T17:58:14.671Z,23.65
2023-02-13T18:00:41.177Z,24.83
2023-02-13T18:03:07.733Z,25.38
2023-02-13T18:05:34.502Z,25.42
2023-02-13T18:08:02.664Z,26.85
2023-02-13T18:10:32.253Z,25.35
2023-02-13T18:13:04.080Z,29.98
2023-02-13T18:18:01.469Z,25.58
2023-02-13T18:20:28.177Z,29.25
2023-02-13T18:22:54.685Z,30.98
2023-02-13T18:25:21.620Z,31.45
2023-02-13T18:27:48.550Z,31.10
2023-02-13T18:30:18.724Z,56.17
2023-02-13T18:32:45.852Z,80.20
2023-02-13T18:35:12.445Z,93.68
2023-02-13T18:37:39.265Z,69.13
2023-02-13T18:40:09.590Z,69.80
2023-02-13T18:42:36.089Z,69.22
2023-02-13T18:45:04.000Z,72.15
2023-02-13T18:47:30.933Z,69.93
2023-02-13T18:49:57.519Z,60.78
2023-02-13T18:52:24.068Z,61.83
2023-02-13T18:54:51.470Z,61.53
2023-02-13T18:57:17.978Z,52.95
2023-02-13T18:59:44.516Z,53.00
2023-02-13T19:02:11.005Z,40.15
2023-02-13T19:04:38.293Z,39.88
2023-02-13T19:07:04.850Z,40.33
2023-02-13T19:09:31.349Z,31.25
2023-02-13T19:11:57.891Z,42.78
2023-02-13T19:14:25.857Z,27.33
2023-02-13T19:16:53.193Z,33.97
2023-02-13T19:19:19.718Z,35.65
2023-02-13T19:21:46.210Z,36.75
2023-02-13T19:24:15.236Z,39.03
2023-02-13T19:26:42.160Z,34.53
2023-02-13T19:29:08.697Z,29.83
2023-02-13T19:31:35.517Z,28.38
2023-02-13T19:34:02.271Z,28.48
2023-02-13T19:36:29.970Z,24.95
2023-02-13T19:38:59.072Z,26.30
2023-02-13T19:41:26.188Z,29.30
2023-02-13T19:43:55.583Z,26.77
2023-02-13T19:46:28.856Z,28.42
2023-02-13T19:48:56.422Z,28.95
2023-02-13T19:51:25.616Z,41.13
2023-02-13T19:54:01.045Z,33.97
2023-02-13T19:56:29.209Z,30.50
2023-02-13T19:58:56.337Z,32.42
2023-02-13T20:01:25.105Z,30.67
2023-02-13T20:03:52.162Z,33.10
2023-02-13T20:06:22.648Z,32.40
2023-02-13T20:08:49.686Z,37.00
2023-02-13T20:11:17.753Z,33.80
2023-02-13T20:13:44.306Z,37.13
2023-02-13T20:16:13.725Z,42.58
2023-02-13T20:18:40.620Z,55.67
2023-02-13T20:21:08.926Z,57.20
2023-02-13T20:23:35.937Z,62.45
2023-02-13T20:26:04.707Z,69.78
2023-02-13T20:28:31.239Z,76.05
2023-02-13T20:30:58.252Z,83.68
2023-02-13T20:33:24.909Z,78.80
2023-02-13T20:35:51.357Z,81.05
2023-02-13T20:38:17.849Z,54.53
2023-02-13T20:40:44.755Z,37.83
2023-02-13T20:43:11.585Z,34.95
2023-02-13T20:45:38.129Z,29.02
2023-02-13T20:48:04.746Z,31.30
2023-02-13T20:50:31.267Z,26.77
2023-02-13T20:52:58.610Z,26.27
2023-02-13T20:55:25.089Z,24.33
2023-02-13T20:57:51.577Z,26.23
2023-02-13T21:00:18.173Z,28.60
2023-02-13T21:02:44.696Z,24.80
2023-02-13T21:05:11.692Z,26.30
2023-02-13T21:07:38.330Z,23.73
2023-02-13T21:10:06.334Z,22.33
2023-02-13T21:12:32.979Z,26.02
2023-02-13T21:14:59.384Z,23.60
2023-02-13T21:17:25.801Z,23.10
2023-02-13T21:19:52.300Z,29.45
2023-02-13T21:22:18.784Z,26.77
2023-02-13T21:24:45.393Z,27.70
2023-02-13T21:27:11.983Z,23.60
2023-02-13T21:29:38.660Z,25.15
2023-02-13T21:32:05.565Z,31.70
2023-02-13T21:34:32.135Z,26.60
2023-02-13T21:36:58.678Z,27.35
2023-02-13T21:39:25.489Z,26.00
2023-02-13T21:41:51.963Z,30.40
2023-02-13T21:44:18.543Z,31.40
2023-02-13T21:46:45.579Z,36.90
2023-02-13T21:49:14.700Z,32.17
2023-02-13T21:51:41.582Z,35.20
2023-02-13T21:54:08.190Z,32.28
2023-02-13T21:56:37.175Z,27.85
2023-02-13T21:59:04.816Z,26.55
2023-02-13T22:01:44.389Z,28.48
2023-02-13T22:04:11.014Z,32.40
2023-02-13T22:06:39.596Z,31.33
2023-02-13T22:09:11.740Z,25.95
2023-02-13T22:11:39.062Z,24.35
2023-02-13T22:14:07.866Z,26.13
2023-02-13T22:16:37.025Z,29.10
2023-02-13T22:19:05.685Z,22.92
2023-02-13T22:21:34.007Z,27.27
2023-02-13T22:24:01.285Z,25.67
2023-02-13T22:26:30.413Z,27.73
2023-02-13T22:29:01.403Z,30.27
2023-02-13T22:31:28.509Z,32.13
2023-02-13T22:34:04.050Z,31.73
2023-02-13T22:36:39.995Z,31.65
2023-02-13T22:39:08.584Z,31.02
2023-02-13T22:41:35.154Z,25.42
2023-02-13T22:44:01.612Z,29.63
2023-02-13T22:46:30.340Z,28.17
2023-02-13T22:48:58.600Z,32.30
2023-02-13T22:51:34.190Z,28.63
2023-02-13T22:54:01.682Z,29.20
2023-02-13T22:56:29.431Z,27.27
2023-02-13T22:58:56.006Z,30.92
2023-02-13T23:01:24.950Z,28.10
2023-02-13T23:03:51.915Z,28.65
2023-02-13T23:06:19.427Z,30.33
2023-02-13T23:08:48.914Z,27.52
2023-02-13T23:11:49.303Z,32.25
2023-02-13T23:14:16.321Z,29.05
2023-02-13T23:17:02.194Z,29.25
2023-02-13T23:19:30.212Z,26.48
2023-02-13T23:21:56.958Z,29.35
2023-02-13T23:24:23.819Z,26.15
2023-02-13T23:26:50.392Z,30.65
2023-02-13T23:29:16.960Z,27.15
2023-02-13T23:31:43.595Z,31.20
2023-02-13T23:34:10.411Z,25.65
2023-02-13T23:36:36.907Z,32.28
2023-02-13T23:39:03.489Z,33.53
2023-02-13T23:41:30.444Z,29.55
2023-02-13T23:43:56.882Z,30.88
2023-02-13T23:46:23.432Z,33.90
2023-02-13T23:48:49.918Z,27.27
2023-02-13T23:51:18.288Z,30.63
2023-02-13T23:53:44.736Z,28.65
2023-02-13T23:56:11.521Z,36.22
2023-02-13T23:58:37.968Z,30.73
